sensor_id;sensor_type;location;lat;lon;timestamp;pressure;altitude;pressure_sealevel;temperature;humidity
550;BME280;20066;48.764;9.176;2023-04-06T00:02:17;98426.63;;;6.85;43.08
550;BME280;20066;48.764;9.176;2023-04-06T00:04:45;98423.53;;;6.83;43.23
550;BME280;20066;48.764;9.176;2023-04-06T00:07:13;98422.25;;;6.96;43.00
550;BME280;20066;48.764;9.176;2023-04-06T00:09:41;98419.75;;;6.49;44.07
550;BME280;20066;48.764;9.176;2023-04-06T00:12:09;98427.69;;;6.46;44.41
550;BME280;20066;48.764;9.176;2023-04-06T00:14:38;98425.31;;;6.25;44.56
550;BME280;20066;48.764;9.176;2023-04-06T00:17:07;98419.34;;;6.47;44.26
550;BME280;20066;48.764;9.176;2023-04-06T00:19:35;98424.91;;;6.23;44.32
550;BME280;20066;48.764;9.176;2023-04-06T00:22:02;98420.19;;;6.16;44.41
550;BME280;20066;48.764;9.176;2023-04-06T00:24:31;98418.50;;;6.08;45.50
550;BME280;20066;48.764;9.176;2023-04-06T00:26:58;98413.13;;;6.24;44.84
550;BME280;20066;48.764;9.176;2023-04-06T00:29:27;98415.72;;;6.05;45.04
550;BME280;20066;48.764;9.176;2023-04-06T00:31:56;98417.72;;;6.08;45.40
550;BME280;20066;48.764;9.176;2023-04-06T00:34:24;98422.81;;;5.97;46.44
550;BME280;20066;48.764;9.176;2023-04-06T00:36:52;98417.84;;;6.31;45.05
550;BME280;20066;48.764;9.176;2023-04-06T00:39:21;98417.25;;;6.41;44.71
550;BME280;20066;48.764;9.176;2023-04-06T00:41:51;98414.03;;;5.81;46.55
550;BME280;20066;48.764;9.176;2023-04-06T00:44:20;98412.88;;;6.13;45.76
550;BME280;20066;48.764;9.176;2023-04-06T00:46:48;98420.50;;;6.31;45.44
550;BME280;20066;48.764;9.176;2023-04-06T00:49:17;98411.16;;;6.40;45.24
550;BME280;20066;48.764;9.176;2023-04-06T00:51:45;98411.22;;;6.09;44.84
550;BME280;20066;48.764;9.176;2023-04-06T00:54:13;98404.84;;;6.48;44.15
550;BME280;20066;48.764;9.176;2023-04-06T00:56:41;98402.09;;;6.45;44.68
550;BME280;20066;48.764;9.176;2023-04-06T00:59:25;98402.09;;;6.45;44.64
550;BME280;20066;48.764;9.176;2023-04-06T01:01:55;98403.13;;;6.40;44.66
550;BME280;20066;48.764;9.176;2023-04-06T01:04:24;98394.00;;;6.41;44.67
550;BME280;20066;48.764;9.176;2023-04-06T01:06:52;98397.31;;;6.35;44.68
550;BME280;20066;48.764;9.176;2023-04-06T01:09:20;98391.56;;;6.52;43.88
550;BME280;20066;48.764;9.176;2023-04-06T01:11:48;98393.38;;;6.29;44.07
550;BME280;20066;48.764;9.176;2023-04-06T01:14:16;98389.84;;;5.90;45.84
550;BME280;20066;48.764;9.176;2023-04-06T01:16:44;98396.34;;;6.08;45.42
550;BME280;20066;48.764;9.176;2023-04-06T01:19:12;98388.81;;;6.29;44.65
550;BME280;20066;48.764;9.176;2023-04-06T01:21:42;98390.00;;;6.32;44.75
550;BME280;20066;48.764;9.176;2023-04-06T01:24:11;98389.44;;;6.22;45.41
550;BME280;20066;48.764;9.176;2023-04-06T01:26:39;98384.47;;;6.05;45.40
550;BME280;20066;48.764;9.176;2023-04-06T01:29:07;98379.97;;;6.09;45.33
550;BME280;20066;48.764;9.176;2023-04-06T01:31:35;98390.47;;;5.67;46.82
550;BME280;20066;48.764;9.176;2023-04-06T01:34:03;98388.22;;;5.85;45.80
550;BME280;20066;48.764;9.176;2023-04-06T01:36:31;98391.84;;;5.77;46.25
550;BME280;20066;48.764;9.176;2023-04-06T01:38:59;98388.22;;;5.69;46.16
550;BME280;20066;48.764;9.176;2023-04-06T01:41:29;98383.06;;;5.76;46.06
550;BME280;20066;48.764;9.176;2023-04-06T01:43:58;98378.63;;;6.00;45.88
550;BME280;20066;48.764;9.176;2023-04-06T01:46:25;98374.03;;;6.16;45.43
550;BME280;20066;48.764;9.176;2023-04-06T01:48:53;98379.63;;;5.76;46.69
550;BME280;20066;48.764;9.176;2023-04-06T01:51:21;98371.16;;;5.90;46.08
550;BME280;20066;48.764;9.176;2023-04-06T01:53:50;98370.88;;;5.95;45.96
550;BME280;20066;48.764;9.176;2023-04-06T01:56:18;98372.78;;;5.94;45.57
550;BME280;20066;48.764;9.176;2023-04-06T01:58:47;98367.44;;;5.94;45.63
550;BME280;20066;48.764;9.176;2023-04-06T02:01:15;98372.72;;;5.75;45.75
550;BME280;20066;48.764;9.176;2023-04-06T02:03:43;98363.34;;;5.18;47.75
550;BME280;20066;48.764;9.176;2023-04-06T02:06:11;98366.13;;;5.69;46.38
550;BME280;20066;48.764;9.176;2023-04-06T02:08:39;98363.75;;;5.83;45.51
550;BME280;20066;48.764;9.176;2023-04-06T02:11:07;98367.81;;;5.77;45.45
550;BME280;20066;48.764;9.176;2023-04-06T02:13:35;98367.84;;;5.45;46.68
550;BME280;20066;48.764;9.176;2023-04-06T02:16:04;98366.72;;;5.47;46.79
550;BME280;20066;48.764;9.176;2023-04-06T02:18:32;98364.81;;;5.63;46.34
550;BME280;20066;48.764;9.176;2023-04-06T02:21:00;98369.63;;;5.73;45.62
550;BME280;20066;48.764;9.176;2023-04-06T02:23:28;98361.06;;;5.99;45.08
550;BME280;20066;48.764;9.176;2023-04-06T02:25:56;98361.50;;;6.01;45.07
550;BME280;20066;48.764;9.176;2023-04-06T02:28:24;98362.25;;;5.35;47.12
550;BME280;20066;48.764;9.176;2023-04-06T02:30:52;98366.28;;;5.44;46.93
550;BME280;20066;48.764;9.176;2023-04-06T02:33:21;98359.75;;;5.42;46.39
550;BME280;20066;48.764;9.176;2023-04-06T02:35:49;98365.00;;;5.38;46.96
550;BME280;20066;48.764;9.176;2023-04-06T02:38:17;98361.97;;;5.71;46.56
550;BME280;20066;48.764;9.176;2023-04-06T02:40:44;98359.81;;;5.77;46.12
550;BME280;20066;48.764;9.176;2023-04-06T02:43:12;98364.94;;;5.85;45.87
550;BME280;20066;48.764;9.176;2023-04-06T02:45:41;98368.81;;;5.88;45.86
550;BME280;20066;48.764;9.176;2023-04-06T02:48:09;98360.59;;;5.77;46.12
550;BME280;20066;48.764;9.176;2023-04-06T02:50:38;98357.53;;;5.95;45.11
550;BME280;20066;48.764;9.176;2023-04-06T02:53:06;98353.53;;;5.85;46.16
550;BME280;20066;48.764;9.176;2023-04-06T02:55:34;98349.66;;;5.82;45.75
550;BME280;20066;48.764;9.176;2023-04-06T02:58:02;98358.94;;;5.73;46.14
550;BME280;20066;48.764;9.176;2023-04-06T03:00:30;98350.19;;;5.41;47.58
550;BME280;20066;48.764;9.176;2023-04-06T03:02:58;98346.16;;;5.47;46.76
550;BME280;20066;48.764;9.176;2023-04-06T03:05:26;98353.03;;;5.64;47.28
550;BME280;20066;48.764;9.176;2023-04-06T03:07:55;98348.13;;;5.50;47.09
550;BME280;20066;48.764;9.176;2023-04-06T03:10:23;98346.06;;;5.59;46.55
550;BME280;20066;48.764;9.176;2023-04-06T03:12:51;98354.66;;;5.68;45.99
550;BME280;20066;48.764;9.176;2023-04-06T03:15:19;98347.47;;;5.88;45.25
550;BME280;20066;48.764;9.176;2023-04-06T03:17:47;98340.22;;;5.54;47.09
550;BME280;20066;48.764;9.176;2023-04-06T03:20:15;98347.53;;;5.57;46.39
550;BME280;20066;48.764;9.176;2023-04-06T03:22:42;98338.91;;;5.63;45.97
550;BME280;20066;48.764;9.176;2023-04-06T03:25:12;98344.25;;;5.63;46.22
550;BME280;20066;48.764;9.176;2023-04-06T03:27:40;98340.78;;;5.63;45.88
550;BME280;20066;48.764;9.176;2023-04-06T03:30:08;98356.56;;;5.68;46.60
550;BME280;20066;48.764;9.176;2023-04-06T03:32:36;98348.63;;;5.56;46.42
550;BME280;20066;48.764;9.176;2023-04-06T03:35:04;98351.56;;;5.66;46.35
550;BME280;20066;48.764;9.176;2023-04-06T03:37:32;98360.00;;;5.68;45.63
550;BME280;20066;48.764;9.176;2023-04-06T03:40:00;98362.66;;;5.68;45.49
550;BME280;20066;48.764;9.176;2023-04-06T03:42:30;98362.84;;;5.44;45.97
550;BME280;20066;48.764;9.176;2023-04-06T03:44:59;98358.13;;;5.37;46.32
550;BME280;20066;48.764;9.176;2023-04-06T03:47:26;98361.94;;;4.93;47.91
550;BME280;20066;48.764;9.176;2023-04-06T03:49:55;98355.53;;;4.38;49.89
550;BME280;20066;48.764;9.176;2023-04-06T03:52:23;98348.91;;;4.20;49.94
550;BME280;20066;48.764;9.176;2023-04-06T03:54:51;98356.69;;;4.81;49.21
550;BME280;20066;48.764;9.176;2023-04-06T03:57:19;98362.66;;;5.05;48.24
550;BME280;20066;48.764;9.176;2023-04-06T03:59:48;98365.56;;;5.16;48.03
550;BME280;20066;48.764;9.176;2023-04-06T04:02:16;98366.53;;;5.24;47.64
550;BME280;20066;48.764;9.176;2023-04-06T04:04:44;98363.00;;;5.20;47.59
550;BME280;20066;48.764;9.176;2023-04-06T04:07:11;98365.16;;;5.14;48.07
550;BME280;20066;48.764;9.176;2023-04-06T04:09:39;98362.25;;;5.19;47.18
550;BME280;20066;48.764;9.176;2023-04-06T04:12:07;98368.00;;;5.21;47.66
550;BME280;20066;48.764;9.176;2023-04-06T04:14:35;98377.97;;;5.40;46.64
550;BME280;20066;48.764;9.176;2023-04-06T04:17:04;98378.34;;;5.23;47.88
550;BME280;20066;48.764;9.176;2023-04-06T04:19:32;98372.91;;;5.19;48.03
550;BME280;20066;48.764;9.176;2023-04-06T04:22:00;98376.19;;;5.44;47.62
550;BME280;20066;48.764;9.176;2023-04-06T04:24:30;98377.13;;;5.36;46.87
550;BME280;20066;48.764;9.176;2023-04-06T04:26:59;98382.16;;;5.10;48.00
550;BME280;20066;48.764;9.176;2023-04-06T04:29:28;98375.47;;;5.31;46.68
550;BME280;20066;48.764;9.176;2023-04-06T04:31:56;98378.75;;;5.25;47.72
550;BME280;20066;48.764;9.176;2023-04-06T04:34:25;98387.13;;;5.23;47.67
550;BME280;20066;48.764;9.176;2023-04-06T04:36:53;98380.75;;;5.28;48.05
550;BME280;20066;48.764;9.176;2023-04-06T04:39:22;98380.13;;;5.19;48.21
550;BME280;20066;48.764;9.176;2023-04-06T04:41:49;98378.41;;;5.26;47.52
550;BME280;20066;48.764;9.176;2023-04-06T04:44:17;98383.69;;;5.38;47.11
550;BME280;20066;48.764;9.176;2023-04-06T04:46:45;98378.97;;;4.88;49.89
550;BME280;20066;48.764;9.176;2023-04-06T04:49:14;98382.81;;;5.34;47.57
550;BME280;20066;48.764;9.176;2023-04-06T04:51:43;98383.06;;;5.29;47.32
550;BME280;20066;48.764;9.176;2023-04-06T04:54:11;98384.06;;;5.09;48.96
550;BME280;20066;48.764;9.176;2023-04-06T04:56:39;98381.69;;;5.20;48.45
550;BME280;20066;48.764;9.176;2023-04-06T04:59:07;98382.63;;;5.27;48.58
550;BME280;20066;48.764;9.176;2023-04-06T05:01:36;98379.97;;;5.27;48.62
550;BME280;20066;48.764;9.176;2023-04-06T05:04:21;98383.41;;;5.28;47.47
550;BME280;20066;48.764;9.176;2023-04-06T05:06:50;98376.63;;;5.30;48.59
550;BME280;20066;48.764;9.176;2023-04-06T05:09:18;98381.69;;;5.35;47.34
550;BME280;20066;48.764;9.176;2023-04-06T05:11:46;98388.47;;;5.33;47.96
550;BME280;20066;48.764;9.176;2023-04-06T05:14:14;98389.25;;;5.49;47.36
550;BME280;20066;48.764;9.176;2023-04-06T05:16:43;98388.72;;;5.12;48.70
550;BME280;20066;48.764;9.176;2023-04-06T05:19:11;98387.81;;;5.36;48.35
550;BME280;20066;48.764;9.176;2023-04-06T05:21:39;98390.53;;;5.24;48.47
550;BME280;20066;48.764;9.176;2023-04-06T05:24:08;98398.47;;;5.52;48.57
550;BME280;20066;48.764;9.176;2023-04-06T05:26:36;98394.16;;;5.63;47.86
550;BME280;20066;48.764;9.176;2023-04-06T05:29:04;98398.31;;;5.60;47.22
550;BME280;20066;48.764;9.176;2023-04-06T05:31:33;98398.31;;;5.60;47.85
550;BME280;20066;48.764;9.176;2023-04-06T05:34:01;98402.41;;;5.73;47.09
550;BME280;20066;48.764;9.176;2023-04-06T05:36:29;98402.94;;;5.63;47.56
550;BME280;20066;48.764;9.176;2023-04-06T05:38:59;98405.44;;;5.56;47.87
550;BME280;20066;48.764;9.176;2023-04-06T05:41:28;98405.59;;;5.79;46.38
550;BME280;20066;48.764;9.176;2023-04-06T05:43:56;98408.34;;;5.82;46.46
550;BME280;20066;48.764;9.176;2023-04-06T05:46:24;98405.84;;;5.90;46.32
550;BME280;20066;48.764;9.176;2023-04-06T05:48:52;98413.38;;;5.68;47.34
550;BME280;20066;48.764;9.176;2023-04-06T05:51:20;98408.84;;;5.88;46.70
550;BME280;20066;48.764;9.176;2023-04-06T05:53:48;98416.75;;;6.16;46.05
550;BME280;20066;48.764;9.176;2023-04-06T05:56:16;98406.84;;;6.16;46.30
550;BME280;20066;48.764;9.176;2023-04-06T05:58:45;98407.72;;;6.05;46.19
550;BME280;20066;48.764;9.176;2023-04-06T06:01:13;98410.00;;;6.22;45.77
550;BME280;20066;48.764;9.176;2023-04-06T06:03:41;98418.66;;;6.15;45.66
550;BME280;20066;48.764;9.176;2023-04-06T06:06:09;98411.97;;;5.90;45.80
550;BME280;20066;48.764;9.176;2023-04-06T06:08:40;98415.63;;;6.01;45.93
550;BME280;20066;48.764;9.176;2023-04-06T06:11:08;98417.44;;;6.13;46.03
550;BME280;20066;48.764;9.176;2023-04-06T06:13:36;98421.28;;;6.31;45.49
550;BME280;20066;48.764;9.176;2023-04-06T06:16:05;98414.34;;;6.65;44.97
550;BME280;20066;48.764;9.176;2023-04-06T06:18:33;98418.75;;;6.57;44.98
550;BME280;20066;48.764;9.176;2023-04-06T06:21:03;98418.28;;;6.71;44.97
550;BME280;20066;48.764;9.176;2023-04-06T06:23:31;98419.34;;;6.47;45.44
550;BME280;20066;48.764;9.176;2023-04-06T06:25:59;98411.28;;;6.82;44.84
550;BME280;20066;48.764;9.176;2023-04-06T06:28:27;98412.31;;;6.78;45.00
550;BME280;20066;48.764;9.176;2023-04-06T06:30:55;98410.72;;;6.92;44.93
550;BME280;20066;48.764;9.176;2023-04-06T06:33:24;98414.75;;;7.25;43.81
550;BME280;20066;48.764;9.176;2023-04-06T06:35:53;98416.41;;;7.33;43.22
550;BME280;20066;48.764;9.176;2023-04-06T06:38:21;98422.53;;;7.56;43.04
550;BME280;20066;48.764;9.176;2023-04-06T06:40:49;98419.28;;;7.44;43.61
550;BME280;20066;48.764;9.176;2023-04-06T06:43:17;98418.69;;;7.31;43.46
550;BME280;20066;48.764;9.176;2023-04-06T06:45:45;98423.56;;;7.71;42.83
550;BME280;20066;48.764;9.176;2023-04-06T06:48:13;98423.75;;;7.59;42.18
550;BME280;20066;48.764;9.176;2023-04-06T06:50:42;98420.59;;;7.76;42.60
550;BME280;20066;48.764;9.176;2023-04-06T06:53:14;98423.53;;;7.94;41.58
550;BME280;20066;48.764;9.176;2023-04-06T06:55:42;98428.28;;;8.30;41.45
550;BME280;20066;48.764;9.176;2023-04-06T06:58:11;98420.94;;;8.53;40.96
550;BME280;20066;48.764;9.176;2023-04-06T07:00:42;98426.78;;;8.33;41.55
550;BME280;20066;48.764;9.176;2023-04-06T07:03:10;98431.66;;;8.53;40.65
550;BME280;20066;48.764;9.176;2023-04-06T07:05:38;98421.38;;;8.59;40.57
550;BME280;20066;48.764;9.176;2023-04-06T07:08:08;98427.06;;;8.24;40.86
550;BME280;20066;48.764;9.176;2023-04-06T07:10:36;98427.53;;;8.89;40.17
550;BME280;20066;48.764;9.176;2023-04-06T07:13:04;98431.22;;;8.78;40.30
550;BME280;20066;48.764;9.176;2023-04-06T07:15:35;98423.50;;;9.06;40.47
550;BME280;20066;48.764;9.176;2023-04-06T07:18:03;98425.91;;;9.15;40.16
550;BME280;20066;48.764;9.176;2023-04-06T07:20:31;98428.13;;;9.46;39.20
550;BME280;20066;48.764;9.176;2023-04-06T07:22:59;98426.16;;;9.43;38.72
550;BME280;20066;48.764;9.176;2023-04-06T07:25:32;98429.13;;;8.64;39.79
550;BME280;20066;48.764;9.176;2023-04-06T07:28:00;98425.72;;;8.67;39.64
550;BME280;20066;48.764;9.176;2023-04-06T07:30:28;98423.63;;;8.53;39.66
550;BME280;20066;48.764;9.176;2023-04-06T07:32:57;98431.88;;;8.41;39.85
550;BME280;20066;48.764;9.176;2023-04-06T07:35:26;98425.94;;;8.85;39.54
550;BME280;20066;48.764;9.176;2023-04-06T07:37:56;98425.47;;;9.09;39.73
550;BME280;20066;48.764;9.176;2023-04-06T07:40:24;98428.63;;;9.18;38.40
550;BME280;20066;48.764;9.176;2023-04-06T07:42:54;98429.66;;;9.91;38.27
550;BME280;20066;48.764;9.176;2023-04-06T07:45:23;98432.47;;;10.74;36.86
550;BME280;20066;48.764;9.176;2023-04-06T07:47:51;98428.59;;;13.68;32.94
550;BME280;20066;48.764;9.176;2023-04-06T07:50:19;98424.19;;;17.95;26.99
550;BME280;20066;48.764;9.176;2023-04-06T07:52:47;98427.16;;;21.05;22.96
550;BME280;20066;48.764;9.176;2023-04-06T07:55:15;98433.97;;;22.75;20.49
550;BME280;20066;48.764;9.176;2023-04-06T07:57:43;98434.56;;;20.95;22.16
550;BME280;20066;48.764;9.176;2023-04-06T08:00:16;98427.25;;;20.70;23.09
550;BME280;20066;48.764;9.176;2023-04-06T08:02:44;98428.00;;;17.49;25.92
550;BME280;20066;48.764;9.176;2023-04-06T08:05:12;98429.63;;;17.47;26.33
550;BME280;20066;48.764;9.176;2023-04-06T08:07:40;98430.03;;;18.26;24.85
550;BME280;20066;48.764;9.176;2023-04-06T08:10:09;98427.88;;;13.05;31.87
550;BME280;20066;48.764;9.176;2023-04-06T08:12:37;98421.81;;;12.66;34.24
550;BME280;20066;48.764;9.176;2023-04-06T08:15:06;98426.97;;;16.87;27.69
550;BME280;20066;48.764;9.176;2023-04-06T08:17:35;98429.03;;;16.40;28.49
550;BME280;20066;48.764;9.176;2023-04-06T08:20:03;98430.75;;;16.54;27.53
550;BME280;20066;48.764;9.176;2023-04-06T08:22:31;98428.06;;;15.61;28.40
550;BME280;20066;48.764;9.176;2023-04-06T08:24:59;98430.66;;;12.73;32.88
550;BME280;20066;48.764;9.176;2023-04-06T08:27:27;98433.94;;;13.82;30.88
550;BME280;20066;48.764;9.176;2023-04-06T08:29:55;98431.56;;;14.33;30.98
550;BME280;20066;48.764;9.176;2023-04-06T08:32:24;98428.13;;;11.88;34.64
550;BME280;20066;48.764;9.176;2023-04-06T08:35:09;98428.88;;;16.04;28.79
550;BME280;20066;48.764;9.176;2023-04-06T08:37:37;98430.22;;;15.16;29.82
550;BME280;20066;48.764;9.176;2023-04-06T08:40:08;98423.31;;;13.54;32.46
550;BME280;20066;48.764;9.176;2023-04-06T08:42:40;98424.94;;;17.31;26.62
550;BME280;20066;48.764;9.176;2023-04-06T08:47:44;98433.91;;;21.93;21.12
550;BME280;20066;48.764;9.176;2023-04-06T08:50:14;98424.59;;;17.09;25.42
550;BME280;20066;48.764;9.176;2023-04-06T08:52:43;98425.81;;;17.77;27.02
550;BME280;20066;48.764;9.176;2023-04-06T08:55:14;98423.56;;;13.70;29.78
550;BME280;20066;48.764;9.176;2023-04-06T08:57:42;98419.97;;;15.57;29.20
550;BME280;20066;48.764;9.176;2023-04-06T09:00:12;98411.16;;;17.70;26.20
550;BME280;20066;48.764;9.176;2023-04-06T09:02:43;98413.84;;;19.06;25.68
550;BME280;20066;48.764;9.176;2023-04-06T09:05:13;98412.63;;;16.47;26.00
550;BME280;20066;48.764;9.176;2023-04-06T09:07:41;98403.53;;;15.68;27.37
550;BME280;20066;48.764;9.176;2023-04-06T09:10:09;98402.38;;;13.06;30.87
550;BME280;20066;48.764;9.176;2023-04-06T09:12:37;98406.91;;;14.23;30.01
550;BME280;20066;48.764;9.176;2023-04-06T09:15:06;98412.03;;;17.67;25.73
550;BME280;20066;48.764;9.176;2023-04-06T09:17:44;98404.88;;;16.26;25.99
550;BME280;20066;48.764;9.176;2023-04-06T09:20:14;98405.84;;;17.99;25.37
550;BME280;20066;48.764;9.176;2023-04-06T09:22:43;98410.13;;;14.83;29.16
550;BME280;20066;48.764;9.176;2023-04-06T09:25:18;98405.63;;;14.35;29.65
550;BME280;20066;48.764;9.176;2023-04-06T09:27:47;98406.09;;;16.45;27.34
550;BME280;20066;48.764;9.176;2023-04-06T09:30:16;98404.09;;;15.79;26.80
550;BME280;20066;48.764;9.176;2023-04-06T09:32:46;98400.19;;;17.90;24.11
550;BME280;20066;48.764;9.176;2023-04-06T09:35:17;98406.97;;;16.98;25.17
550;BME280;20066;48.764;9.176;2023-04-06T09:37:47;98396.66;;;17.09;25.74
550;BME280;20066;48.764;9.176;2023-04-06T09:40:15;98395.13;;;17.76;24.90
550;BME280;20066;48.764;9.176;2023-04-06T09:42:58;98403.78;;;17.39;25.78
550;BME280;20066;48.764;9.176;2023-04-06T09:45:29;98387.69;;;20.06;21.93
550;BME280;20066;48.764;9.176;2023-04-06T09:47:58;98385.09;;;14.04;27.24
550;BME280;20066;48.764;9.176;2023-04-06T09:50:29;98393.13;;;14.48;27.25
550;BME280;20066;48.764;9.176;2023-04-06T09:52:58;98396.78;;;14.65;26.78
550;BME280;20066;48.764;9.176;2023-04-06T09:55:30;98398.66;;;18.51;23.02
550;BME280;20066;48.764;9.176;2023-04-06T09:58:05;98397.34;;;21.29;19.83
550;BME280;20066;48.764;9.176;2023-04-06T10:00:42;98397.06;;;18.08;21.23
550;BME280;20066;48.764;9.176;2023-04-06T10:03:17;98398.34;;;19.41;20.31
550;BME280;20066;48.764;9.176;2023-04-06T10:05:52;98394.53;;;19.76;19.60
550;BME280;20066;48.764;9.176;2023-04-06T10:08:27;98399.81;;;20.05;20.08
550;BME280;20066;48.764;9.176;2023-04-06T10:10:58;98396.97;;;18.12;21.27
550;BME280;20066;48.764;9.176;2023-04-06T10:13:27;98395.88;;;17.93;21.48
550;BME280;20066;48.764;9.176;2023-04-06T10:15:55;98396.13;;;19.99;19.97
550;BME280;20066;48.764;9.176;2023-04-06T10:18:23;98385.66;;;18.13;20.81
550;BME280;20066;48.764;9.176;2023-04-06T10:20:55;98377.19;;;15.92;23.27
550;BME280;20066;48.764;9.176;2023-04-06T10:23:31;98385.69;;;19.59;20.15
550;BME280;20066;48.764;9.176;2023-04-06T10:26:00;98385.72;;;19.47;20.05
550;BME280;20066;48.764;9.176;2023-04-06T10:28:32;98382.94;;;17.81;21.17
550;BME280;20066;48.764;9.176;2023-04-06T10:31:01;98383.53;;;18.33;20.01
550;BME280;20066;48.764;9.176;2023-04-06T10:33:30;98388.88;;;19.20;20.29
550;BME280;20066;48.764;9.176;2023-04-06T10:36:09;98383.66;;;18.30;20.49
550;BME280;20066;48.764;9.176;2023-04-06T10:38:39;98397.47;;;19.94;19.45
550;BME280;20066;48.764;9.176;2023-04-06T10:41:09;98376.94;;;20.46;18.77
550;BME280;20066;48.764;9.176;2023-04-06T10:43:38;98381.38;;;21.27;18.11
550;BME280;20066;48.764;9.176;2023-04-06T10:46:08;98383.91;;;21.52;18.48
550;BME280;20066;48.764;9.176;2023-04-06T10:48:38;98381.34;;;19.62;18.98
550;BME280;20066;48.764;9.176;2023-04-06T10:51:12;98372.31;;;19.14;19.97
550;BME280;20066;48.764;9.176;2023-04-06T10:53:41;98378.38;;;19.56;19.62
550;BME280;20066;48.764;9.176;2023-04-06T10:56:10;98367.13;;;18.37;20.03
550;BME280;20066;48.764;9.176;2023-04-06T10:58:44;98375.78;;;19.28;19.68
550;BME280;20066;48.764;9.176;2023-04-06T11:01:14;98376.72;;;18.41;20.59
550;BME280;20066;48.764;9.176;2023-04-06T11:03:43;98375.09;;;19.87;19.29
550;BME280;20066;48.764;9.176;2023-04-06T11:06:19;98372.63;;;21.50;17.95
550;BME280;20066;48.764;9.176;2023-04-06T11:08:47;98365.34;;;21.17;17.57
550;BME280;20066;48.764;9.176;2023-04-06T11:11:16;98365.84;;;19.46;18.81
550;BME280;20066;48.764;9.176;2023-04-06T11:13:48;98364.53;;;18.46;19.77
550;BME280;20066;48.764;9.176;2023-04-06T11:16:16;98363.81;;;19.25;20.04
550;BME280;20066;48.764;9.176;2023-04-06T11:18:53;98360.88;;;21.01;17.98
550;BME280;20066;48.764;9.176;2023-04-06T11:21:33;98357.41;;;21.40;18.15
550;BME280;20066;48.764;9.176;2023-04-06T11:24:06;98341.91;;;18.62;19.73
550;BME280;20066;48.764;9.176;2023-04-06T11:26:39;98346.72;;;21.24;17.91
550;BME280;20066;48.764;9.176;2023-04-06T11:29:07;98331.88;;;20.51;19.20
550;BME280;20066;48.764;9.176;2023-04-06T11:31:44;98334.06;;;22.21;17.66
550;BME280;20066;48.764;9.176;2023-04-06T11:34:15;98337.97;;;21.66;17.34
550;BME280;20066;48.764;9.176;2023-04-06T11:36:54;98333.41;;;20.30;18.47
550;BME280;20066;48.764;9.176;2023-04-06T11:39:24;98334.78;;;20.78;18.38
550;BME280;20066;48.764;9.176;2023-04-06T11:41:53;98333.16;;;20.15;18.79
550;BME280;20066;48.764;9.176;2023-04-06T11:44:33;98327.84;;;20.86;18.28
550;BME280;20066;48.764;9.176;2023-04-06T11:47:01;98331.28;;;20.34;18.08
550;BME280;20066;48.764;9.176;2023-04-06T11:49:30;98329.41;;;19.40;19.21
550;BME280;20066;48.764;9.176;2023-04-06T11:52:00;98328.19;;;20.97;18.49
550;BME280;20066;48.764;9.176;2023-04-06T11:54:32;98321.94;;;19.79;18.78
550;BME280;20066;48.764;9.176;2023-04-06T11:57:01;98320.63;;;18.57;19.69
550;BME280;20066;48.764;9.176;2023-04-06T11:59:32;98321.16;;;17.16;20.87
550;BME280;20066;48.764;9.176;2023-04-06T12:02:01;98312.84;;;16.87;21.97
550;BME280;20066;48.764;9.176;2023-04-06T12:04:29;98307.59;;;15.08;23.70
550;BME280;20066;48.764;9.176;2023-04-06T12:06:59;98304.69;;;17.23;21.65
550;BME280;20066;48.764;9.176;2023-04-06T12:09:27;98302.16;;;16.96;21.72
550;BME280;20066;48.764;9.176;2023-04-06T12:11:55;98313.50;;;18.34;21.05
550;BME280;20066;48.764;9.176;2023-04-06T12:14:23;98307.44;;;20.25;18.93
550;BME280;20066;48.764;9.176;2023-04-06T12:16:51;98307.13;;;19.54;18.96
550;BME280;20066;48.764;9.176;2023-04-06T12:19:19;98307.47;;;18.68;19.66
550;BME280;20066;48.764;9.176;2023-04-06T12:21:50;98308.97;;;19.45;19.14
550;BME280;20066;48.764;9.176;2023-04-06T12:24:24;98299.69;;;20.76;17.93
550;BME280;20066;48.764;9.176;2023-04-06T12:26:53;98303.75;;;18.07;19.36
550;BME280;20066;48.764;9.176;2023-04-06T12:29:34;98290.56;;;17.12;21.09
550;BME280;20066;48.764;9.176;2023-04-06T12:32:02;98291.75;;;18.05;20.72
550;BME280;20066;48.764;9.176;2023-04-06T12:34:30;98281.09;;;19.15;19.49
550;BME280;20066;48.764;9.176;2023-04-06T12:36:58;98273.25;;;17.22;20.91
550;BME280;20066;48.764;9.176;2023-04-06T12:39:28;98271.09;;;15.63;22.82
550;BME280;20066;48.764;9.176;2023-04-06T12:41:56;98277.22;;;17.50;20.88
550;BME280;20066;48.764;9.176;2023-04-06T12:44:24;98274.22;;;18.06;20.43
550;BME280;20066;48.764;9.176;2023-04-06T12:46:52;98273.22;;;20.73;18.49
550;BME280;20066;48.764;9.176;2023-04-06T12:49:20;98275.63;;;21.11;17.72
550;BME280;20066;48.764;9.176;2023-04-06T12:51:48;98272.88;;;21.61;17.63
550;BME280;20066;48.764;9.176;2023-04-06T12:54:16;98265.16;;;21.10;17.99
550;BME280;20066;48.764;9.176;2023-04-06T12:56:46;98263.66;;;20.16;18.32
550;BME280;20066;48.764;9.176;2023-04-06T12:59:13;98261.81;;;20.44;18.21
550;BME280;20066;48.764;9.176;2023-04-06T13:01:43;98272.53;;;20.91;18.05
550;BME280;20066;48.764;9.176;2023-04-06T13:04:11;98262.66;;;21.25;17.79
550;BME280;20066;48.764;9.176;2023-04-06T13:06:39;98264.91;;;20.24;18.38
550;BME280;20066;48.764;9.176;2023-04-06T13:09:06;98268.66;;;20.39;17.72
550;BME280;20066;48.764;9.176;2023-04-06T13:11:34;98260.28;;;21.05;17.93
550;BME280;20066;48.764;9.176;2023-04-06T13:14:03;98250.00;;;19.60;18.22
550;BME280;20066;48.764;9.176;2023-04-06T13:16:31;98253.31;;;19.55;18.82
550;BME280;20066;48.764;9.176;2023-04-06T13:18:59;98250.03;;;17.34;20.66
550;BME280;20066;48.764;9.176;2023-04-06T13:21:27;98253.50;;;17.51;19.95
550;BME280;20066;48.764;9.176;2023-04-06T13:23:56;98251.78;;;19.07;19.42
550;BME280;20066;48.764;9.176;2023-04-06T13:26:24;98248.94;;;18.60;19.68
550;BME280;20066;48.764;9.176;2023-04-06T13:29:05;98252.88;;;18.04;19.70
550;BME280;20066;48.764;9.176;2023-04-06T13:32:11;98256.56;;;18.52;19.98
550;BME280;20066;48.764;9.176;2023-04-06T13:34:43;98247.84;;;18.70;19.44
550;BME280;20066;48.764;9.176;2023-04-06T13:37:15;98241.91;;;19.22;18.71
550;BME280;20066;48.764;9.176;2023-04-06T13:39:43;98233.88;;;20.09;18.10
550;BME280;20066;48.764;9.176;2023-04-06T13:42:11;98233.13;;;20.39;18.15